createdAt,value
2022-11-01T00:09:42.674Z,37.70
2022-11-01T00:19:48.373Z,44.30
2022-11-01T00:29:54.069Z,33.80
2022-11-01T00:39:59.794Z,32.60
2022-11-01T00:50:06.420Z,36.10
2022-11-01T01:00:15.848Z,29.80
2022-11-01T01:10:21.757Z,38.30
2022-11-01T01:20:27.904Z,33.00
2022-11-01T01:30:33.596Z,27.00
2022-11-01T01:40:39.216Z,27.50
2022-11-01T01:50:49.989Z,21.50
2022-11-01T02:00:56.152Z,26.00
2022-11-01T02:11:05.106Z,25.20
2022-11-01T02:21:30.119Z,19.00
2022-11-01T02:31:49.450Z,22.10
2022-11-01T02:42:03.447Z,24.00
2022-11-01T02:52:12.504Z,21.70
2022-11-01T03:02:39.450Z,24.00
2022-11-01T03:12:58.787Z,19.70
2022-11-01T03:23:06.365Z,22.10
2022-11-01T03:33:14.577Z,25.90
2022-11-01T03:43:22.687Z,27.30
2022-11-01T03:53:28.603Z,28.60
2022-11-01T04:03:34.442Z,26.60
2022-11-01T04:13:40.442Z,27.50
2022-11-01T04:23:47.284Z,27.40
2022-11-01T04:33:53.180Z,26.80
2022-11-01T04:44:00.122Z,27.70
2022-11-01T04:54:06.026Z,26.60
2022-11-01T05:04:11.718Z,26.50
2022-11-01T05:14:17.633Z,24.10
2022-11-01T05:24:23.910Z,22.70
2022-11-01T05:34:29.744Z,21.80
2022-11-01T05:44:35.588Z,20.20
2022-11-01T05:54:41.354Z,20.00
2022-11-01T06:04:47.022Z,21.40
2022-11-01T06:14:53.165Z,22.50
2022-11-01T06:24:58.860Z,25.10
2022-11-01T06:35:05.586Z,26.30
2022-11-01T06:45:12.297Z,28.00
2022-11-01T06:55:18.218Z,25.40
2022-11-01T07:05:24.036Z,26.40
2022-11-01T07:15:30.778Z,26.30
2022-11-01T07:25:36.754Z,24.60
2022-11-01T07:35:42.486Z,23.50
2022-11-01T07:45:48.354Z,22.00
2022-11-01T07:55:54.521Z,22.00
2022-11-01T08:06:00.212Z,24.30
2022-11-01T08:16:06.766Z,24.80
2022-11-01T08:26:12.494Z,22.40
2022-11-01T08:36:18.484Z,23.40
2022-11-01T08:46:24.634Z,23.10
2022-11-01T08:56:30.570Z,24.20
2022-11-01T09:06:36.626Z,27.00
2022-11-01T09:16:42.742Z,28.00
2022-11-01T09:26:48.379Z,32.20
2022-11-01T09:36:54.685Z,31.50
2022-11-01T09:47:04.265Z,32.00
2022-11-01T09:57:20.171Z,33.40
2022-11-01T10:07:33.920Z,33.90
2022-11-01T10:17:52.632Z,38.00
2022-11-01T10:28:06.799Z,33.20
2022-11-01T10:38:38.030Z,32.70
2022-11-01T10:48:50.025Z,37.20
2022-11-01T10:59:02.568Z,34.20
2022-11-01T11:09:18.742Z,33.20
2022-11-01T11:19:33.783Z,32.40
2022-11-01T11:29:48.606Z,35.30
2022-11-01T11:40:20.399Z,38.10
2022-11-01T11:50:33.047Z,38.50
2022-11-01T12:00:49.130Z,41.90
2022-11-01T12:11:00.165Z,40.10
2022-11-01T12:21:06.344Z,28.50
2022-11-01T12:31:16.536Z,29.40
2022-11-01T12:41:31.983Z,24.40
2022-11-01T12:51:43.599Z,26.90
2022-11-01T13:01:57.905Z,26.70
2022-11-01T13:12:11.002Z,26.50
2022-11-01T13:22:24.533Z,28.20
2022-11-01T13:32:36.870Z,25.00
2022-11-01T13:42:45.677Z,22.90
2022-11-01T13:52:58.748Z,21.10
2022-11-01T14:03:19.801Z,16.50
2022-11-01T14:13:40.452Z,19.80
2022-11-01T14:23:51.437Z,17.50
2022-11-01T14:34:00.324Z,17.70
2022-11-01T14:44:13.239Z,21.00
2022-11-01T14:54:24.551Z,19.80
2022-11-01T15:04:33.096Z,20.40
2022-11-01T15:14:41.494Z,20.40
2022-11-01T15:24:50.077Z,19.80
2022-11-01T15:34:57.651Z,18.30
2022-11-01T15:45:20.708Z,20.10
2022-11-01T15:55:29.875Z,20.50
2022-11-01T16:05:38.777Z,26.30
2022-11-01T16:16:01.499Z,30.30
2022-11-01T16:26:10.144Z,29.00
2022-11-01T16:36:42.050Z,29.70
2022-11-01T16:46:47.786Z,28.70
2022-11-01T16:56:55.847Z,80.80
2022-11-01T17:07:01.649Z,67.80
2022-11-01T17:17:12.260Z,59.30
2022-11-01T17:27:19.102Z,40.90
2022-11-01T17:37:26.841Z,61.70
2022-11-01T17:47:32.482Z,67.30
2022-11-01T17:57:38.345Z,65.00
2022-11-01T18:07:48.941Z,69.10
2022-11-01T18:18:07.725Z,83.40
2022-11-01T18:28:17.811Z,93.60
2022-11-01T18:38:29.972Z,126.00
2022-11-01T18:48:36.495Z,131.70
2022-11-01T18:58:42.658Z,149.90
2022-11-01T19:08:53.846Z,168.80
2022-11-01T19:19:00.998Z,189.70
2022-11-01T19:29:17.212Z,160.80
2022-11-01T19:39:32.493Z,188.50
2022-11-01T19:49:41.179Z,174.90
2022-11-01T19:59:47.478Z,173.10
2022-11-01T20:09:58.301Z,161.20
2022-11-01T20:20:04.642Z,126.40
2022-11-01T20:30:12.820Z,114.70
2022-11-01T20:40:21.465Z,102.40
2022-11-01T20:50:28.017Z,94.20
2022-11-01T21:00:34.213Z,78.80
2022-11-01T21:10:41.311Z,90.50
2022-11-01T21:20:49.656Z,93.00
2022-11-01T21:30:55.916Z,87.20
2022-11-01T21:41:01.999Z,82.90
2022-11-01T21:51:08.311Z,80.00
2022-11-01T22:01:14.095Z,67.20
2022-11-01T22:11:23.598Z,68.40
2022-11-01T22:21:29.896Z,71.70
2022-11-01T22:31:35.833Z,62.10
2022-11-01T22:41:42.738Z,53.10
2022-11-01T22:51:51.443Z,49.90
2022-11-01T23:02:02.691Z,49.40
2022-11-01T23:12:42.656Z,44.40
2022-11-01T23:22:48.546Z,60.70
2022-11-01T23:32:54.472Z,45.60
2022-11-01T23:43:00.278Z,40.70
2022-11-01T23:53:11.003Z,36.60
